sensor_id;sensor_type;location;lat;lon;timestamp;pressure;altitude;pressure_sealevel;temperature;humidity
48800;BME280;34611;47.964;7.982;2023-02-10T00:04:10;98602.66;;;8.28;47.78
48800;BME280;34611;47.964;7.982;2023-02-10T00:11:10;98607.84;;;8.28;48.18
48800;BME280;34611;47.964;7.982;2023-02-10T00:18:11;98614.69;;;8.29;47.65
48800;BME280;34611;47.964;7.982;2023-02-10T00:25:11;98610.34;;;8.29;47.82
48800;BME280;34611;47.964;7.982;2023-02-10T00:32:11;98596.53;;;8.29;47.77
48800;BME280;34611;47.964;7.982;2023-02-10T00:39:14;98589.63;;;8.29;47.86
48800;BME280;34611;47.964;7.982;2023-02-10T00:46:15;98592.13;;;8.31;47.93
48800;BME280;34611;47.964;7.982;2023-02-10T00:53:15;98588.72;;;8.30;47.88
48800;BME280;34611;47.964;7.982;2023-02-10T01:00:16;98599.91;;;8.31;47.76
48800;BME280;34611;47.964;7.982;2023-02-10T01:07:16;98596.41;;;8.32;47.74
48800;BME280;34611;47.964;7.982;2023-02-10T01:14:16;98600.66;;;8.33;47.95
48800;BME280;34611;47.964;7.982;2023-02-10T01:21:18;98606.78;;;8.32;47.90
48800;BME280;34611;47.964;7.982;2023-02-10T01:28:18;98609.38;;;8.32;47.96
48800;BME280;34611;47.964;7.982;2023-02-10T01:35:19;98603.34;;;8.31;48.04
48800;BME280;34611;47.964;7.982;2023-02-10T01:42:19;98599.78;;;8.34;47.93
48800;BME280;34611;47.964;7.982;2023-02-10T01:49:21;98601.53;;;8.34;47.91
48800;BME280;34611;47.964;7.982;2023-02-10T01:56:23;98604.13;;;8.34;48.13
48800;BME280;34611;47.964;7.982;2023-02-10T02:03:23;98603.25;;;8.33;48.07
48800;BME280;34611;47.964;7.982;2023-02-10T02:10:23;98604.97;;;8.34;48.00
48800;BME280;34611;47.964;7.982;2023-02-10T02:38:37;98614.41;;;8.35;48.07
48800;BME280;34611;47.964;7.982;2023-02-10T02:52:50;98604.03;;;8.35;48.18
48800;BME280;34611;47.964;7.982;2023-02-10T03:00:15;98604.03;;;8.35;48.10
48800;BME280;34611;47.964;7.982;2023-02-10T03:07:17;98622.94;;;8.37;48.18
48800;BME280;34611;47.964;7.982;2023-02-10T03:14:18;98618.69;;;8.36;48.23
48800;BME280;34611;47.964;7.982;2023-02-10T03:21:18;98616.09;;;8.36;48.29
48800;BME280;34611;47.964;7.982;2023-02-10T03:28:18;98612.56;;;8.37;48.21
48800;BME280;34611;47.964;7.982;2023-02-10T03:35:19;98608.31;;;8.36;48.30
48800;BME280;34611;47.964;7.982;2023-02-10T03:42:19;98624.63;;;8.38;48.22
48800;BME280;34611;47.964;7.982;2023-02-10T03:49:20;98635.00;;;8.38;48.11
48800;BME280;34611;47.964;7.982;2023-02-10T03:56:20;98641.00;;;8.39;48.22
48800;BME280;34611;47.964;7.982;2023-02-10T04:03:20;98668.69;;;8.38;48.29
48800;BME280;34611;47.964;7.982;2023-02-10T04:10:21;98673.88;;;8.38;48.17
48800;BME280;34611;47.964;7.982;2023-02-10T04:17:21;98662.59;;;8.39;48.29
48800;BME280;34611;47.964;7.982;2023-02-10T04:24:21;98657.41;;;8.39;48.18
48800;BME280;34611;47.964;7.982;2023-02-10T04:31:21;98654.81;;;8.39;48.38
48800;BME280;34611;47.964;7.982;2023-02-10T04:38:22;98666.03;;;8.40;48.37
48800;BME280;34611;47.964;7.982;2023-02-10T04:45:24;98671.16;;;8.41;48.28
48800;BME280;34611;47.964;7.982;2023-02-10T04:52:24;98662.56;;;8.41;48.41
48800;BME280;34611;47.964;7.982;2023-02-10T04:59:25;98669.47;;;8.40;48.27
48800;BME280;34611;47.964;7.982;2023-02-10T05:06:25;98674.66;;;8.40;48.42
48800;BME280;34611;47.964;7.982;2023-02-10T05:13:25;98666.88;;;8.40;48.22
48800;BME280;34611;47.964;7.982;2023-02-10T05:20:26;98675.50;;;8.41;48.55
48800;BME280;34611;47.964;7.982;2023-02-10T05:27:26;98671.16;;;8.41;48.26
48800;BME280;34611;47.964;7.982;2023-02-10T05:34:26;98680.63;;;8.42;48.40
48800;BME280;34611;47.964;7.982;2023-02-10T05:41:26;98669.47;;;8.40;48.51
48800;BME280;34611;47.964;7.982;2023-02-10T05:48:27;98676.34;;;8.41;48.50
48800;BME280;34611;47.964;7.982;2023-02-10T05:55:27;98678.03;;;8.42;48.43
48800;BME280;34611;47.964;7.982;2023-02-10T06:02:27;98678.94;;;8.41;48.51
48800;BME280;34611;47.964;7.982;2023-02-10T06:09:27;98696.94;;;8.44;48.49
48800;BME280;34611;47.964;7.982;2023-02-10T06:16:30;98689.25;;;8.43;48.52
48800;BME280;34611;47.964;7.982;2023-02-10T06:23:31;98702.19;;;8.43;48.49
48800;BME280;34611;47.964;7.982;2023-02-10T06:30:31;98703.94;;;8.42;48.58
48800;BME280;34611;47.964;7.982;2023-02-10T06:37:31;98703.94;;;8.42;48.51
48800;BME280;34611;47.964;7.982;2023-02-10T06:44:31;98712.56;;;8.43;48.64
48800;BME280;34611;47.964;7.982;2023-02-10T06:51:32;98716.84;;;8.44;48.57
48800;BME280;34611;47.964;7.982;2023-02-10T06:58:32;98715.97;;;8.43;48.62
48800;BME280;34611;47.964;7.982;2023-02-10T07:05:32;98730.63;;;8.44;48.56
48800;BME280;34611;47.964;7.982;2023-02-10T07:12:35;98738.97;;;8.51;48.55
48800;BME280;34611;47.964;7.982;2023-02-10T07:19:35;98741.00;;;8.44;48.76
48800;BME280;34611;47.964;7.982;2023-02-10T07:26:36;98741.00;;;8.44;48.67
48800;BME280;34611;47.964;7.982;2023-02-10T07:33:36;98742.75;;;8.44;48.83
48800;BME280;34611;47.964;7.982;2023-02-10T07:40:37;98745.25;;;8.45;48.71
48800;BME280;34611;47.964;7.982;2023-02-10T07:47:38;98760.81;;;8.45;48.78
48800;BME280;34611;47.964;7.982;2023-02-10T07:54:38;98757.44;;;8.43;48.81
48800;BME280;34611;47.964;7.982;2023-02-10T08:01:41;98762.56;;;8.45;48.78
48800;BME280;34611;47.964;7.982;2023-02-10T08:08:43;98766.94;;;8.44;48.74
48800;BME280;34611;47.964;7.982;2023-02-10T08:15:43;98768.59;;;8.45;48.72
48800;BME280;34611;47.964;7.982;2023-02-10T08:22:43;98771.19;;;8.45;48.86
48800;BME280;34611;47.964;7.982;2023-02-10T08:29:43;98771.19;;;8.45;48.98
48800;BME280;34611;47.964;7.982;2023-02-10T08:36:44;98766.00;;;8.45;48.89
48800;BME280;34611;47.964;7.982;2023-02-10T08:43:45;98766.00;;;8.45;48.83
48800;BME280;34611;47.964;7.982;2023-02-10T08:50:45;98773.78;;;8.45;48.76
48800;BME280;34611;47.964;7.982;2023-02-10T08:57:45;98765.09;;;8.46;48.82
48800;BME280;34611;47.964;7.982;2023-02-10T09:04:45;98769.47;;;8.46;49.02
48800;BME280;34611;47.964;7.982;2023-02-10T09:11:46;98767.69;;;8.46;48.76
48800;BME280;34611;47.964;7.982;2023-02-10T09:18:46;98763.41;;;8.45;48.87
48800;BME280;34611;47.964;7.982;2023-02-10T09:25:51;98759.00;;;8.47;48.78
48800;BME280;34611;47.964;7.982;2023-02-10T09:32:52;98755.50;;;8.48;48.93
48800;BME280;34611;47.964;7.982;2023-02-10T09:39:52;98759.00;;;8.47;48.96
48800;BME280;34611;47.964;7.982;2023-02-10T09:47:02;98767.69;;;8.46;49.08
48800;BME280;34611;47.964;7.982;2023-02-10T09:54:07;98762.47;;;8.48;49.08
48800;BME280;34611;47.964;7.982;2023-02-10T10:08:22;98756.41;;;8.47;49.12
48800;BME280;34611;47.964;7.982;2023-02-10T10:15:27;98755.56;;;8.47;49.00
48800;BME280;34611;47.964;7.982;2023-02-10T10:22:35;98751.16;;;8.49;48.95
48800;BME280;34611;47.964;7.982;2023-02-10T10:29:43;98751.22;;;8.47;49.05
48800;BME280;34611;47.964;7.982;2023-02-10T10:36:49;98758.94;;;8.49;49.04
48800;BME280;34611;47.964;7.982;2023-02-10T10:43:51;98761.53;;;8.49;48.93
48800;BME280;34611;47.964;7.982;2023-02-10T10:50:53;98747.69;;;8.50;48.99
48800;BME280;34611;47.964;7.982;2023-02-10T10:57:55;98746.81;;;8.49;49.01
48800;BME280;34611;47.964;7.982;2023-02-10T11:05:03;98735.59;;;8.49;49.00
48800;BME280;34611;47.964;7.982;2023-02-10T11:12:05;98738.13;;;8.50;49.01
48800;BME280;34611;47.964;7.982;2023-02-10T11:19:15;98727.78;;;8.50;49.16
48800;BME280;34611;47.964;7.982;2023-02-10T11:26:20;98727.78;;;8.50;48.99
48800;BME280;34611;47.964;7.982;2023-02-10T11:33:22;98730.38;;;8.50;49.06
48800;BME280;34611;47.964;7.982;2023-02-10T11:40:24;98719.94;;;8.52;49.04
48800;BME280;34611;47.964;7.982;2023-02-10T11:47:29;98721.66;;;8.51;49.26
48800;BME280;34611;47.964;7.982;2023-02-10T11:54:30;98727.72;;;8.52;49.10
48800;BME280;34611;47.964;7.982;2023-02-10T12:15:48;98710.41;;;8.53;49.24
48800;BME280;34611;47.964;7.982;2023-02-10T12:51:04;98697.44;;;8.53;49.04
48800;BME280;34611;47.964;7.982;2023-02-10T12:58:24;98691.34;;;8.54;49.15
48800;BME280;34611;47.964;7.982;2023-02-10T13:05:32;98689.66;;;8.53;49.12
48800;BME280;34611;47.964;7.982;2023-02-10T13:12:36;98679.28;;;8.53;49.18
48800;BME280;34611;47.964;7.982;2023-02-10T13:19:48;98674.13;;;8.53;49.19
48800;BME280;34611;47.964;7.982;2023-02-10T13:27:07;98672.34;;;8.53;49.38
48800;BME280;34611;47.964;7.982;2023-02-10T13:34:28;98673.28;;;8.52;49.28
48800;BME280;34611;47.964;7.982;2023-02-10T13:41:30;98668.84;;;8.54;49.38
48800;BME280;34611;47.964;7.982;2023-02-10T13:48:55;98677.53;;;8.53;49.46
48800;BME280;34611;47.964;7.982;2023-02-10T14:17:24;98692.16;;;8.54;49.44
48800;BME280;34611;47.964;7.982;2023-02-10T14:24:30;98688.75;;;8.54;49.44
48800;BME280;34611;47.964;7.982;2023-02-10T14:31:34;98697.34;;;8.54;49.38
48800;BME280;34611;47.964;7.982;2023-02-10T14:38:35;98708.59;;;8.55;49.40
48800;BME280;34611;47.964;7.982;2023-02-10T14:45:36;98704.28;;;8.54;49.66
48800;BME280;34611;47.964;7.982;2023-02-10T14:52:45;98707.72;;;8.54;49.43
48800;BME280;34611;47.964;7.982;2023-02-10T14:59:56;98713.81;;;8.53;49.49
48800;BME280;34611;47.964;7.982;2023-02-10T15:06:57;98714.66;;;8.54;49.46
48800;BME280;34611;47.964;7.982;2023-02-10T15:13:58;98718.94;;;8.55;49.44
48800;BME280;34611;47.964;7.982;2023-02-10T15:21:01;98726.72;;;8.55;49.47
48800;BME280;34611;47.964;7.982;2023-02-10T15:35:11;98724.97;;;8.55;49.45
48800;BME280;34611;47.964;7.982;2023-02-10T15:49:15;98718.03;;;8.56;49.64
48800;BME280;34611;47.964;7.982;2023-02-10T15:56:17;98724.03;;;8.56;49.68
48800;BME280;34611;47.964;7.982;2023-02-10T16:03:17;98716.25;;;8.56;49.56
48800;BME280;34611;47.964;7.982;2023-02-10T16:10:19;98715.44;;;8.56;49.62
48800;BME280;34611;47.964;7.982;2023-02-10T16:17:21;98722.31;;;8.57;49.61
48800;BME280;34611;47.964;7.982;2023-02-10T16:24:23;98714.59;;;8.55;49.60
48800;BME280;34611;47.964;7.982;2023-02-10T16:31:24;98711.00;;;8.58;49.63
48800;BME280;34611;47.964;7.982;2023-02-10T16:38:25;98715.38;;;8.57;49.55
48800;BME280;34611;47.964;7.982;2023-02-10T16:45:27;98720.63;;;8.56;49.64
48800;BME280;34611;47.964;7.982;2023-02-10T16:52:27;98705.00;;;8.57;49.77
48800;BME280;34611;47.964;7.982;2023-02-10T16:59:27;98718.78;;;8.58;49.65
48800;BME280;34611;47.964;7.982;2023-02-10T17:06:28;98718.78;;;8.58;49.74
48800;BME280;34611;47.964;7.982;2023-02-10T17:13:30;98728.31;;;8.57;49.77
48800;BME280;34611;47.964;7.982;2023-02-10T17:20:31;98729.16;;;8.58;49.80
48800;BME280;34611;47.964;7.982;2023-02-10T17:27:33;98736.09;;;8.57;49.87
48800;BME280;34611;47.964;7.982;2023-02-10T17:34:33;98742.78;;;8.63;49.85
48800;BME280;34611;47.964;7.982;2023-02-10T17:41:35;98747.03;;;8.64;50.41
48800;BME280;34611;47.964;7.982;2023-02-10T17:48:35;98747.19;;;8.61;50.14
48800;BME280;34611;47.964;7.982;2023-02-10T17:55:39;98759.28;;;8.60;50.02
48800;BME280;34611;47.964;7.982;2023-02-10T18:02:39;98760.22;;;8.59;50.10
48800;BME280;34611;47.964;7.982;2023-02-10T18:09:40;98750.66;;;8.60;49.91
48800;BME280;34611;47.964;7.982;2023-02-10T18:16:41;98748.84;;;8.62;50.04
48800;BME280;34611;47.964;7.982;2023-02-10T18:23:41;98745.50;;;8.60;49.91
48800;BME280;34611;47.964;7.982;2023-02-10T18:30:42;98742.84;;;8.61;49.93
48800;BME280;34611;47.964;7.982;2023-02-10T18:37:43;98759.88;;;8.67;50.57
48800;BME280;34611;47.964;7.982;2023-02-10T18:44:44;98751.44;;;8.62;50.35
48800;BME280;34611;47.964;7.982;2023-02-10T18:51:45;98767.00;;;8.62;50.33
48800;BME280;34611;47.964;7.982;2023-02-10T18:58:52;98771.28;;;8.63;50.16
48800;BME280;34611;47.964;7.982;2023-02-10T19:05:52;98782.56;;;8.62;50.24
48800;BME280;34611;47.964;7.982;2023-02-10T19:12:53;98780.88;;;8.61;50.06
48800;BME280;34611;47.964;7.982;2023-02-10T19:19:53;98798.09;;;8.62;50.29
48800;BME280;34611;47.964;7.982;2023-02-10T19:26:53;98803.28;;;8.62;50.05
48800;BME280;34611;47.964;7.982;2023-02-10T19:33:54;98816.25;;;8.62;50.25
48800;BME280;34611;47.964;7.982;2023-02-10T19:41:05;98816.25;;;8.62;50.24
48800;BME280;34611;47.964;7.982;2023-02-10T19:48:06;98819.69;;;8.62;50.08
48800;BME280;34611;47.964;7.982;2023-02-10T19:55:06;98818.00;;;8.61;50.15
48800;BME280;34611;47.964;7.982;2023-02-10T20:02:07;98817.19;;;8.61;50.32
48800;BME280;34611;47.964;7.982;2023-02-10T20:09:10;98817.94;;;8.63;50.25
48800;BME280;34611;47.964;7.982;2023-02-10T20:16:11;98818.84;;;8.62;50.32
48800;BME280;34611;47.964;7.982;2023-02-10T20:23:11;98809.41;;;8.61;50.19
48800;BME280;34611;47.964;7.982;2023-02-10T20:30:12;98796.34;;;8.62;50.34
48800;BME280;34611;47.964;7.982;2023-02-10T20:37:12;98793.41;;;8.70;50.31
48800;BME280;34611;47.964;7.982;2023-02-10T20:44:12;98788.50;;;8.64;50.70
48800;BME280;34611;47.964;7.982;2023-02-10T20:51:13;98800.63;;;8.63;50.60
48800;BME280;34611;47.964;7.982;2023-02-10T20:58:13;98794.53;;;8.64;50.62
48800;BME280;34611;47.964;7.982;2023-02-10T21:05:13;98798.88;;;8.64;50.54
48800;BME280;34611;47.964;7.982;2023-02-10T21:12:14;98798.03;;;8.63;50.41
48800;BME280;34611;47.964;7.982;2023-02-10T21:19:14;98795.44;;;8.63;50.54
48800;BME280;34611;47.964;7.982;2023-02-10T21:26:14;98785.91;;;8.64;50.43
48800;BME280;34611;47.964;7.982;2023-02-10T21:33:16;98789.44;;;8.63;50.49
48800;BME280;34611;47.964;7.982;2023-02-10T21:40:16;98778.16;;;8.64;50.36
48800;BME280;34611;47.964;7.982;2023-02-10T21:47:16;98776.47;;;8.63;50.49
48800;BME280;34611;47.964;7.982;2023-02-10T21:54:17;98782.50;;;8.63;50.58
48800;BME280;34611;47.964;7.982;2023-02-10T22:01:17;98780.72;;;8.64;50.48
48800;BME280;34611;47.964;7.982;2023-02-10T22:08:18;98769.53;;;8.63;50.61
48800;BME280;34611;47.964;7.982;2023-02-10T22:15:19;98772.97;;;8.64;50.50
48800;BME280;34611;47.964;7.982;2023-02-10T22:22:19;98777.25;;;8.65;50.50
48800;BME280;34611;47.964;7.982;2023-02-10T22:29:19;98766.88;;;8.65;50.40
48800;BME280;34611;47.964;7.982;2023-02-10T22:36:20;98763.50;;;8.63;50.48
48800;BME280;34611;47.964;7.982;2023-02-10T22:43:20;98772.13;;;8.63;50.63
48800;BME280;34611;47.964;7.982;2023-02-10T22:50:20;98766.94;;;8.63;50.57
48800;BME280;34611;47.964;7.982;2023-02-10T22:57:20;98771.19;;;8.64;50.60
48800;BME280;34611;47.964;7.982;2023-02-10T23:04:21;98772.97;;;8.64;50.63
48800;BME280;34611;47.964;7.982;2023-02-10T23:11:23;98772.13;;;8.63;50.67
48800;BME280;34611;47.964;7.982;2023-02-10T23:18:24;98762.59;;;8.64;50.50
48800;BME280;34611;47.964;7.982;2023-02-10T23:25:24;98764.34;;;8.63;50.73
48800;BME280;34611;47.964;7.982;2023-02-10T23:32:25;98754.81;;;8.64;50.69
48800;BME280;34611;47.964;7.982;2023-02-10T23:39:26;98750.47;;;8.64;50.73
48800;BME280;34611;47.964;7.982;2023-02-10T23:46:28;98740.03;;;8.66;50.47
48800;BME280;34611;47.964;7.982;2023-02-10T23:53:28;98718.50;;;8.64;50.64
